Time,TemperatureF,DewpointF,PressureIn,WindDirection,WindDirectionDegrees,WindSpeedMPH,WindSpeedGustMPH,Humidity,HourlyPrecipIn,Conditions,Clouds,dailyrainin,SoftwareType,DateUTC
2013-01-29 00:00:00,51.0,39.0,29.94,NNW,341,1.0,7.0,63,0.00,,,0.00,,2013-01-28 22:00:00,
2013-01-29 00:23:00,51.0,39.0,29.94,NNW,341,1.0,7.0,63,0.00,,,0.00,,2013-01-28 22:23:00,
2013-01-29 00:33:00,51.0,39.0,29.94,NNW,341,1.0,7.0,63,0.00,,,0.00,,2013-01-28 22:33:00,
2013-01-29 00:42:00,51.0,39.0,29.94,NNW,341,1.0,7.0,63,0.00,,,0.00,,2013-01-28 22:42:00,
2013-01-29 00:52:00,51.0,39.0,29.94,NNW,341,1.0,7.0,63,0.00,,,0.00,,2013-01-28 22:52:00,
2013-01-29 01:00:00,51.0,39.0,29.97,NNW,348,4.0,7.0,64,0.00,,,0.00,,2013-01-28 23:00:00,
2013-01-29 01:22:00,51.0,39.0,29.97,NNW,348,4.0,7.0,64,0.00,,,0.00,,2013-01-28 23:22:00,
2013-01-29 01:32:00,51.0,39.0,29.97,NNW,348,4.0,7.0,64,0.00,,,0.00,,2013-01-28 23:32:00,
2013-01-29 01:42:00,51.0,39.0,29.97,NNW,348,4.0,7.0,64,0.00,,,0.00,,2013-01-28 23:42:00,
2013-01-29 01:52:00,51.0,39.0,29.97,NNW,348,4.0,7.0,64,0.00,,,0.00,,2013-01-28 23:52:00,
2013-01-29 02:22:00,51.0,40.0,29.97,NNW,341,2.0,7.0,65,0.00,,,0.00,,2013-01-29 00:22:00,
2013-01-29 02:33:00,51.0,40.0,29.97,NNW,341,2.0,7.0,65,0.00,,,0.00,,2013-01-29 00:33:00,
2013-01-29 02:42:00,51.0,40.0,29.97,NNW,341,2.0,7.0,65,0.00,,,0.00,,2013-01-29 00:42:00,
2013-01-29 02:52:00,51.0,40.0,29.97,North,349,5.0,7.0,66,0.00,,,0.00,,2013-01-29 00:52:00,
2013-01-29 03:01:00,51.0,40.0,29.97,North,349,5.0,7.0,66,0.00,,,0.00,,2013-01-29 01:01:00,
2013-01-29 03:11:00,51.0,40.0,29.97,North,349,5.0,7.0,66,0.00,,,0.00,,2013-01-29 01:11:00,
2013-01-29 03:22:00,51.0,40.0,29.97,NNW,341,0.0,6.0,66,0.00,,,0.00,,2013-01-29 01:22:00,
2013-01-29 03:31:00,51.0,40.0,29.97,NNW,341,0.0,6.0,66,0.00,,,0.00,,2013-01-29 01:31:00,
2013-01-29 03:42:00,51.0,40.0,29.97,NNW,341,0.0,6.0,66,0.00,,,0.00,,2013-01-29 01:42:00,
2013-01-29 03:52:00,51.0,40.0,29.97,NNW,335,3.0,3.0,67,0.00,,,0.00,,2013-01-29 01:52:00,
2013-01-29 04:00:00,50.0,39.0,29.97,NW,308,0.0,3.0,67,0.00,,,0.00,,2013-01-29 02:00:00,
2013-01-29 04:01:00,51.0,40.0,29.97,NNW,335,3.0,3.0,67,0.00,,,0.00,,2013-01-29 02:01:00,
2013-01-29 04:11:00,51.0,40.0,29.97,NNW,335,3.0,3.0,67,0.00,,,0.00,,2013-01-29 02:11:00,
2013-01-29 04:21:00,50.0,39.0,29.97,NW,308,0.0,3.0,67,0.00,,,0.00,,2013-01-29 02:21:00,
2013-01-29 04:32:00,50.0,39.0,29.97,NW,308,0.0,3.0,67,0.00,,,0.00,,2013-01-29 02:32:00,
2013-01-29 04:42:00,50.0,39.0,29.97,NW,308,0.0,3.0,67,0.00,,,0.00,,2013-01-29 02:42:00,
2013-01-29 04:52:00,50.0,39.0,29.97,NW,308,0.0,3.0,67,0.00,,,0.00,,2013-01-29 02:52:00,
2013-01-29 05:53:00,50.0,39.0,29.97,NW,312,0.0,0.0,67,0.00,,,0.00,,2013-01-29 03:53:00,
2013-01-29 06:00:00,49.0,39.0,29.97,NW,313,0.0,2.0,68,0.00,,,0.00,,2013-01-29 04:00:00,
2013-01-29 06:01:00,50.0,39.0,29.97,NW,312,0.0,0.0,67,0.00,,,0.00,,2013-01-29 04:01:00,
2013-01-29 06:11:00,50.0,39.0,29.97,NW,312,0.0,0.0,67,0.00,,,0.00,,2013-01-29 04:11:00,
2013-01-29 06:21:00,49.0,39.0,29.97,NW,313,0.0,2.0,68,0.00,,,0.00,,2013-01-29 04:21:00,
2013-01-29 06:31:00,49.0,39.0,29.97,NW,313,0.0,2.0,68,0.00,,,0.00,,2013-01-29 04:31:00,
2013-01-29 06:42:00,49.0,39.0,29.97,NW,313,0.0,2.0,68,0.00,,,0.00,,2013-01-29 04:42:00,
2013-01-29 06:52:00,49.0,39.0,29.97,NW,313,0.0,2.0,68,0.00,,,0.00,,2013-01-29 04:52:00,
2013-01-29 07:22:00,49.0,40.0,30.00,NNW,333,0.0,3.0,71,0.00,,,0.00,,2013-01-29 05:22:00,
2013-01-29 07:30:00,49.0,40.0,30.00,NNW,341,3.0,7.0,70,0.00,,,0.00,,2013-01-29 05:30:00,
2013-01-29 07:32:00,49.0,40.0,30.00,NNW,333,0.0,3.0,71,0.00,,,0.00,,2013-01-29 05:32:00,
2013-01-29 07:42:00,49.0,40.0,30.00,NNW,333,0.0,3.0,71,0.00,,,0.00,,2013-01-29 05:42:00,
2013-01-29 07:52:00,49.0,40.0,30.00,NNW,341,3.0,7.0,70,0.00,,,0.00,,2013-01-29 05:52:00,
2013-01-29 08:01:00,49.0,40.0,30.00,NNW,341,3.0,7.0,70,0.00,,,0.00,,2013-01-29 06:01:00,
2013-01-29 08:11:00,49.0,40.0,30.00,NNW,341,3.0,7.0,70,0.00,,,0.00,,2013-01-29 06:11:00,
2013-01-29 08:21:00,49.0,40.0,30.00,NNW,341,3.0,7.0,70,0.00,,,0.00,,2013-01-29 06:21:00,
2013-01-29 08:30:00,49.0,38.0,30.00,NNW,341,4.0,6.0,65,0.00,,,0.00,,2013-01-29 06:30:00,
2013-01-29 08:52:00,49.0,38.0,30.00,NNW,341,4.0,6.0,65,0.00,,,0.00,,2013-01-29 06:52:00,
2013-01-29 09:01:00,49.0,38.0,30.00,NNW,341,4.0,6.0,65,0.00,,,0.00,,2013-01-29 07:01:00,
2013-01-29 09:11:00,49.0,38.0,30.00,NNW,341,4.0,6.0,65,0.00,,,0.00,,2013-01-29 07:11:00,
2013-01-29 09:21:00,49.0,38.0,30.00,NNW,341,4.0,6.0,65,0.00,,,0.00,,2013-01-29 07:21:00,
2013-01-29 10:21:00,52.0,39.0,30.03,NNW,341,0.0,3.0,62,0.00,,,0.00,,2013-01-29 08:21:00,
2013-01-29 10:32:00,52.0,39.0,30.03,NNW,341,0.0,3.0,62,0.00,,,0.00,,2013-01-29 08:32:00,
2013-01-29 10:42:00,52.0,39.0,30.03,NNW,341,0.0,3.0,62,0.00,,,0.00,,2013-01-29 08:42:00,
2013-01-29 10:52:00,53.0,39.0,30.03,NNW,338,6.0,12.0,60,0.00,,,0.00,,2013-01-29 08:52:00,
2013-01-29 11:01:00,53.0,39.0,30.03,NNW,338,6.0,12.0,60,0.00,,,0.00,,2013-01-29 09:01:00,
2013-01-29 11:11:00,53.0,39.0,30.03,NNW,338,6.0,12.0,60,0.00,,,0.00,,2013-01-29 09:11:00,
2013-01-29 11:21:00,53.0,39.0,30.06,NNW,344,7.0,12.0,59,0.00,,,0.00,,2013-01-29 09:21:00,
2013-01-29 11:31:00,53.0,39.0,30.06,NNW,344,7.0,12.0,59,0.00,,,0.00,,2013-01-29 09:31:00,
2013-01-29 11:42:00,53.0,39.0,30.06,NNW,344,7.0,12.0,59,0.00,,,0.00,,2013-01-29 09:42:00,
2013-01-29 11:51:00,55.0,41.0,30.03,NNW,340,5.0,14.0,58,0.00,,,0.00,,2013-01-29 09:51:00,
2013-01-29 12:01:00,55.0,41.0,30.03,NNW,340,5.0,14.0,58,0.00,,,0.00,,2013-01-29 10:01:00,
2013-01-29 12:11:00,55.0,41.0,30.03,NNW,340,5.0,14.0,58,0.00,,,0.00,,2013-01-29 10:11:00,
2013-01-29 12:21:00,54.0,40.0,30.06,NNW,346,7.0,20.0,58,0.00,,,0.00,,2013-01-29 10:21:00,
2013-01-29 12:32:00,54.0,40.0,30.06,NNW,346,7.0,20.0,58,0.00,,,0.00,,2013-01-29 10:32:00,
2013-01-29 12:42:00,54.0,40.0,30.06,NNW,346,7.0,20.0,58,0.00,,,0.00,,2013-01-29 10:42:00,
2013-01-29 12:52:00,53.0,39.0,30.03,NNW,348,6.0,14.0,60,0.00,,,0.00,,2013-01-29 10:52:00,
2013-01-29 13:01:00,53.0,39.0,30.03,NNW,348,6.0,14.0,60,0.00,,,0.00,,2013-01-29 11:01:00,
2013-01-29 13:11:00,53.0,39.0,30.03,NNW,348,6.0,14.0,60,0.00,,,0.00,,2013-01-29 11:11:00,
2013-01-29 13:21:00,53.0,39.0,30.03,NNW,335,6.0,15.0,60,0.00,,,0.00,,2013-01-29 11:21:00,
2013-01-29 13:31:00,53.0,39.0,30.03,NNW,335,6.0,15.0,60,0.00,,,0.00,,2013-01-29 11:31:00,
2013-01-29 13:42:00,53.0,39.0,30.03,NNW,335,6.0,15.0,60,0.00,,,0.00,,2013-01-29 11:42:00,
2013-01-29 13:52:00,52.0,39.0,30.03,NNE,13,4.0,12.0,61,0.00,,,0.00,,2013-01-29 11:52:00,
2013-01-29 14:02:00,52.0,39.0,30.03,NNE,13,4.0,12.0,61,0.00,,,0.00,,2013-01-29 12:02:00,
2013-01-29 14:12:00,52.0,39.0,30.03,NNE,13,4.0,12.0,61,0.00,,,0.00,,2013-01-29 12:12:00,
2013-01-29 14:21:00,52.0,39.0,30.03,NNW,341,3.0,12.0,61,0.00,,,0.00,,2013-01-29 12:21:00,
2013-01-29 14:32:00,52.0,39.0,30.03,NNW,341,3.0,12.0,61,0.00,,,0.00,,2013-01-29 12:32:00,
2013-01-29 14:43:00,52.0,39.0,30.03,NNW,341,3.0,12.0,61,0.00,,,0.00,,2013-01-29 12:43:00,
2013-01-29 14:52:00,52.0,39.0,30.03,NNW,334,5.0,9.0,62,0.00,,,0.00,,2013-01-29 12:52:00,
2013-01-29 15:01:00,52.0,39.0,30.03,NNW,334,5.0,9.0,62,0.00,,,0.00,,2013-01-29 13:01:00,
2013-01-29 15:11:00,52.0,39.0,30.03,NNW,334,5.0,9.0,62,0.00,,,0.00,,2013-01-29 13:11:00,
2013-01-29 15:22:00,52.0,40.0,30.03,NNW,340,9.0,15.0,63,0.00,,,0.00,,2013-01-29 13:22:00,
2013-01-29 15:30:00,52.0,39.0,30.03,NNW,338,10.0,14.0,62,0.00,,,0.00,,2013-01-29 13:30:00,
2013-01-29 15:31:00,52.0,40.0,30.03,NNW,340,9.0,15.0,63,0.00,,,0.00,,2013-01-29 13:31:00,
2013-01-29 15:43:00,52.0,40.0,30.03,NNW,340,9.0,15.0,63,0.00,,,0.00,,2013-01-29 13:43:00,
2013-01-29 15:52:00,52.0,39.0,30.03,NNW,338,10.0,14.0,62,0.00,,,0.00,,2013-01-29 13:52:00,
2013-01-29 16:01:00,52.0,39.0,30.03,NNW,338,10.0,14.0,62,0.00,,,0.00,,2013-01-29 14:01:00,
2013-01-29 16:12:00,52.0,39.0,30.03,NNW,338,10.0,14.0,62,0.00,,,0.00,,2013-01-29 14:12:00,
2013-01-29 16:21:00,52.0,39.0,30.03,NNW,338,10.0,14.0,62,0.00,,,0.00,,2013-01-29 14:21:00,
2013-01-29 16:52:00,52.0,40.0,30.00,NNW,337,8.0,13.0,63,0.00,,,0.00,,2013-01-29 14:52:00,
2013-01-29 17:02:00,52.0,40.0,30.00,NNW,337,8.0,13.0,63,0.00,,,0.00,,2013-01-29 15:02:00,
2013-01-29 17:11:00,52.0,40.0,30.00,NNW,337,8.0,13.0,63,0.00,,,0.00,,2013-01-29 15:11:00,
2013-01-29 17:21:00,52.0,40.0,30.00,NNW,344,6.0,17.0,63,0.00,,,0.00,,2013-01-29 15:21:00,
2013-01-29 17:30:00,51.0,40.0,30.03,NNW,346,3.0,15.0,66,0.00,,,0.00,,2013-01-29 15:30:00,
2013-01-29 17:32:00,52.0,40.0,30.00,NNW,344,6.0,17.0,63,0.00,,,0.00,,2013-01-29 15:32:00,
2013-01-29 17:43:00,52.0,40.0,30.00,NNW,344,6.0,17.0,63,0.00,,,0.00,,2013-01-29 15:43:00,
2013-01-29 17:53:00,51.0,40.0,30.03,NNW,346,3.0,15.0,66,0.00,,,0.00,,2013-01-29 15:53:00,
2013-01-29 18:01:00,51.0,40.0,30.03,NNW,346,3.0,15.0,66,0.00,,,0.00,,2013-01-29 16:01:00,
2013-01-29 18:12:00,51.0,40.0,30.03,NNW,346,3.0,15.0,66,0.00,,,0.00,,2013-01-29 16:12:00,
2013-01-29 18:21:00,51.0,40.0,30.03,NNW,346,3.0,15.0,66,0.00,,,0.00,,2013-01-29 16:21:00,
2013-01-29 18:53:00,50.0,40.0,30.03,North,11,3.0,13.0,68,0.00,,,0.00,,2013-01-29 16:53:00,
2013-01-29 19:02:00,50.0,40.0,30.03,North,11,3.0,13.0,68,0.00,,,0.00,,2013-01-29 17:02:00,
2013-01-29 19:12:00,50.0,40.0,30.03,North,11,3.0,13.0,68,0.00,,,0.00,,2013-01-29 17:12:00,
2013-01-29 19:21:00,50.0,40.0,30.03,NNW,333,3.0,12.0,68,0.00,,,0.00,,2013-01-29 17:21:00,
2013-01-29 19:31:00,50.0,40.0,30.03,NNW,333,3.0,12.0,68,0.00,,,0.00,,2013-01-29 17:31:00,
2013-01-29 19:42:00,50.0,40.0,30.03,NNW,333,3.0,12.0,68,0.00,,,0.00,,2013-01-29 17:42:00,
2013-01-29 19:52:00,50.0,40.0,30.03,NNW,339,6.0,13.0,69,0.00,,,0.00,,2013-01-29 17:52:00,
2013-01-29 20:02:00,50.0,40.0,30.03,NNW,339,6.0,13.0,69,0.00,,,0.00,,2013-01-29 18:02:00,
2013-01-29 20:12:00,50.0,40.0,30.03,NNW,339,6.0,13.0,69,0.00,,,0.00,,2013-01-29 18:12:00,
2013-01-29 20:21:00,50.0,41.0,30.06,NNW,333,7.0,14.0,71,0.00,,,0.00,,2013-01-29 18:21:00,
2013-01-29 20:33:00,50.0,41.0,30.06,NNW,333,7.0,14.0,71,0.00,,,0.00,,2013-01-29 18:33:00,
2013-01-29 20:42:00,50.0,41.0,30.06,NNW,333,7.0,14.0,71,0.00,,,0.00,,2013-01-29 18:42:00,
2013-01-29 20:52:00,50.0,41.0,30.06,NNW,337,5.0,14.0,72,0.00,,,0.00,,2013-01-29 18:52:00,
2013-01-29 21:01:00,50.0,41.0,30.06,NNW,337,5.0,14.0,72,0.00,,,0.00,,2013-01-29 19:01:00,
2013-01-29 21:11:00,50.0,41.0,30.06,NNW,337,5.0,14.0,72,0.00,,,0.00,,2013-01-29 19:11:00,
2013-01-29 21:22:00,50.0,41.0,30.06,NNW,339,4.0,12.0,71,0.00,,,0.00,,2013-01-29 19:22:00,
2013-01-29 21:31:00,50.0,41.0,30.06,NNW,339,4.0,12.0,71,0.00,,,0.00,,2013-01-29 19:31:00,
2013-01-29 21:42:00,50.0,41.0,30.06,NNW,339,4.0,12.0,71,0.00,,,0.00,,2013-01-29 19:42:00,
2013-01-29 21:52:00,50.0,41.0,30.06,NNW,342,5.0,9.0,72,0.00,,,0.00,,2013-01-29 19:52:00,
2013-01-29 22:01:00,50.0,41.0,30.06,NNW,342,5.0,9.0,72,0.00,,,0.00,,2013-01-29 20:01:00,
2013-01-29 22:12:00,50.0,41.0,30.06,NNW,342,5.0,9.0,72,0.00,,,0.00,,2013-01-29 20:12:00,
2013-01-29 22:21:00,49.0,40.0,30.06,North,0,3.0,9.0,72,0.00,,,0.00,,2013-01-29 20:21:00,
2013-01-29 22:32:00,49.0,40.0,30.06,North,0,3.0,9.0,72,0.00,,,0.00,,2013-01-29 20:32:00,
2013-01-29 22:42:00,49.0,40.0,30.06,North,0,3.0,9.0,72,0.00,,,0.00,,2013-01-29 20:42:00,
2013-01-29 22:53:00,49.0,41.0,30.06,NNW,346,1.0,7.0,73,0.00,,,0.00,,2013-01-29 20:53:00,
2013-01-29 23:01:00,49.0,41.0,30.06,NNW,346,1.0,7.0,73,0.00,,,0.00,,2013-01-29 21:01:00,
2013-01-29 23:12:00,49.0,41.0,30.06,NNW,346,1.0,7.0,73,0.00,,,0.00,,2013-01-29 21:12:00,
2013-01-29 23:21:00,49.0,41.0,30.06,NW,321,0.0,5.0,75,0.00,,,0.00,,2013-01-29 21:21:00,
2013-01-29 23:32:00,49.0,41.0,30.06,NW,321,0.0,5.0,75,0.00,,,0.00,,2013-01-29 21:32:00,
2013-01-29 23:42:00,49.0,41.0,30.06,NW,321,0.0,5.0,75,0.00,,,0.00,,2013-01-29 21:42:00,
2013-01-29 23:52:00,49.0,42.0,30.06,NW,319,0.0,3.0,76,0.00,,,0.00,,2013-01-29 21:52:00,